createdAt,value
2023-09-10T00:01:47.595Z,19.370001
2023-09-10T00:05:12.740Z,19.379999
2023-09-10T00:08:38.352Z,19.370001
2023-09-10T00:12:03.145Z,19.360001
2023-09-10T00:15:28.352Z,19.379999
2023-09-10T00:18:53.561Z,19.440001
2023-09-10T00:22:19.540Z,19.48
2023-09-10T00:25:44.753Z,19.51
2023-09-10T00:29:09.962Z,19.51
2023-09-10T00:32:35.125Z,19.52
2023-09-10T00:36:00.283Z,19.549999
2023-09-10T00:39:25.414Z,19.57
2023-09-10T00:42:50.580Z,19.6
2023-09-10T00:46:15.817Z,19.629999
2023-09-10T00:49:41.038Z,19.67
2023-09-10T00:53:06.242Z,19.68
2023-09-10T00:56:31.339Z,19.68
2023-09-10T00:59:56.536Z,19.690001
2023-09-10T01:03:21.833Z,19.690001
2023-09-10T01:06:46.918Z,19.700001
2023-09-10T01:10:12.188Z,19.700001
2023-09-10T01:13:37.316Z,19.709999
2023-09-10T01:17:02.607Z,19.709999
2023-09-10T01:20:27.770Z,19.709999
2023-09-10T01:23:52.900Z,19.700001
2023-09-10T01:27:18.121Z,19.690001
2023-09-10T01:30:43.277Z,19.68
2023-09-10T01:34:08.429Z,19.67
2023-09-10T01:37:33.631Z,19.639999
2023-09-10T01:40:58.820Z,19.620001
2023-09-10T01:44:23.958Z,19.59
2023-09-10T01:47:49.150Z,19.57
2023-09-10T01:51:14.294Z,19.530001
2023-09-10T01:54:39.486Z,19.51
2023-09-10T01:58:04.689Z,19.5
2023-09-10T02:01:29.964Z,19.48
2023-09-10T02:04:55.098Z,19.469999
2023-09-10T02:08:20.236Z,19.459999
2023-09-10T02:11:45.432Z,19.450001
2023-09-10T02:15:10.627Z,19.370001
2023-09-10T02:18:35.833Z,19.27
2023-09-10T02:22:01.033Z,19.17
2023-09-10T02:25:26.213Z,19.15
2023-09-10T02:28:51.391Z,19.120001
2023-09-10T02:32:16.626Z,19.120001
2023-09-10T02:35:41.764Z,19.139999
2023-09-10T02:39:06.885Z,19.16
2023-09-10T02:42:32.048Z,19.190001
2023-09-10T02:45:57.249Z,19.18
2023-09-10T02:49:22.367Z,19.18
2023-09-10T02:52:47.583Z,19.190001
2023-09-10T02:56:12.739Z,19.219999
2023-09-10T02:59:37.882Z,19.23
2023-09-10T03:03:03.085Z,19.23
2023-09-10T03:06:28.233Z,19.23
2023-09-10T03:09:53.405Z,19.200001
2023-09-10T03:13:18.553Z,19.17
2023-09-10T03:16:43.794Z,19.16
2023-09-10T03:20:08.921Z,19.129999
2023-09-10T03:23:34.082Z,19.07
2023-09-10T03:26:59.279Z,19.030001
2023-09-10T03:30:24.428Z,19
2023-09-10T03:33:49.597Z,18.959999
2023-09-10T03:37:14.781Z,18.950001
2023-09-10T03:40:39.973Z,18.93
2023-09-10T03:44:05.228Z,18.91
2023-09-10T03:47:30.342Z,18.870001
2023-09-10T03:50:55.464Z,18.85
2023-09-10T03:54:20.615Z,18.85
2023-09-10T03:57:45.781Z,18.84
2023-09-10T04:01:11.029Z,18.83
2023-09-10T04:04:36.126Z,18.809999
2023-09-10T04:08:01.309Z,18.809999
2023-09-10T04:11:26.451Z,18.790001
2023-09-10T04:14:51.616Z,18.75
2023-09-10T04:18:16.835Z,18.73
2023-09-10T04:21:41.972Z,18.75
2023-09-10T04:25:07.156Z,18.73
2023-09-10T04:28:32.322Z,18.709999
2023-09-10T04:31:57.504Z,18.690001
2023-09-10T04:35:22.771Z,18.65
2023-09-10T04:38:47.828Z,18.65
2023-09-10T04:42:12.993Z,18.65
2023-09-10T04:45:38.168Z,18.629999
2023-09-10T04:49:03.358Z,18.620001
2023-09-10T04:52:28.551Z,18.620001
2023-09-10T04:55:53.714Z,18.540001
2023-09-10T04:59:18.908Z,18.530001
2023-09-10T05:02:46.075Z,18.51
2023-09-10T05:06:09.261Z,18.549999
2023-09-10T05:09:34.503Z,18.59
2023-09-10T05:12:59.632Z,18.629999
2023-09-10T05:16:24.805Z,18.65
2023-09-10T05:19:49.988Z,18.65
2023-09-10T05:23:15.155Z,18.690001
2023-09-10T05:26:40.300Z,18.76
2023-09-10T05:30:05.463Z,18.85
2023-09-10T05:33:30.626Z,18.91
2023-09-10T05:36:55.784Z,18.98
2023-09-10T05:40:20.963Z,19.07
2023-09-10T05:43:46.158Z,19.15
2023-09-10T05:47:11.365Z,19.219999
2023-09-10T05:50:36.537Z,19.290001
2023-09-10T05:54:01.723Z,19.34
2023-09-10T05:57:26.883Z,19.42
2023-09-10T06:00:52.070Z,19.48
2023-09-10T06:04:17.366Z,19.540001
2023-09-10T06:07:42.481Z,19.629999
2023-09-10T06:11:07.697Z,19.709999
2023-09-10T06:14:32.830Z,19.809999
2023-09-10T06:17:58.045Z,19.91
2023-09-10T06:21:23.553Z,20.02
2023-09-10T06:24:48.730Z,20.139999
2023-09-10T06:28:13.926Z,20.25
2023-09-10T06:31:39.154Z,20.34
2023-09-10T06:35:04.365Z,20.41
2023-09-10T06:38:29.567Z,20.459999
2023-09-10T06:41:54.786Z,20.530001
2023-09-10T06:45:19.954Z,20.6
2023-09-10T06:48:45.120Z,20.690001
2023-09-10T06:52:10.310Z,20.76
2023-09-10T06:55:35.450Z,20.84
2023-09-10T06:59:00.651Z,20.92
2023-09-10T07:02:25.875Z,20.969999
2023-09-10T07:05:51.048Z,21.049999
2023-09-10T07:09:16.206Z,21.139999
2023-09-10T07:12:41.401Z,21.209999
2023-09-10T07:16:06.707Z,21.280001
2023-09-10T07:19:31.816Z,21.379999
2023-09-10T07:22:57.043Z,21.48
2023-09-10T07:26:22.256Z,21.559999
2023-09-10T07:29:47.430Z,21.629999
2023-09-10T07:33:12.649Z,21.719999
2023-09-10T07:36:37.828Z,21.77
2023-09-10T07:40:03.095Z,21.860001
2023-09-10T07:43:28.295Z,21.93
2023-09-10T07:46:53.530Z,22.01
2023-09-10T07:50:18.692Z,22.08
2023-09-10T07:53:43.889Z,22.16
2023-09-10T07:57:09.097Z,22.25
2023-09-10T08:00:34.345Z,22.370001
2023-09-10T08:03:59.519Z,22.469999
2023-09-10T08:07:24.730Z,22.57
2023-09-10T08:10:49.952Z,22.68
2023-09-10T08:14:15.207Z,22.77
2023-09-10T08:17:40.491Z,22.82
2023-09-10T08:21:05.610Z,22.940001
2023-09-10T08:24:30.774Z,23.030001
2023-09-10T08:27:56.014Z,23.09
2023-09-10T08:31:21.213Z,23.16
2023-09-10T08:34:46.480Z,23.27
2023-09-10T08:38:11.653Z,23.389999
2023-09-10T08:41:36.858Z,23.52
2023-09-10T08:45:02.068Z,23.67
2023-09-10T08:48:27.281Z,23.76
2023-09-10T08:51:52.527Z,23.83
2023-09-10T08:55:17.663Z,23.91
2023-09-10T08:58:43.073Z,24.059999
2023-09-10T09:02:08.151Z,24.16
2023-09-10T09:05:33.309Z,24.200001
2023-09-10T09:08:58.513Z,24.209999
2023-09-10T09:12:23.746Z,24.24
2023-09-10T09:15:48.995Z,24.280001
2023-09-10T09:19:14.146Z,24.360001
2023-09-10T09:22:39.370Z,24.41
2023-09-10T09:26:04.600Z,24.43
2023-09-10T09:29:29.756Z,24.52
2023-09-10T09:32:54.953Z,24.58
2023-09-10T09:36:20.155Z,24.67
2023-09-10T09:39:45.353Z,24.76
2023-09-10T09:43:19.824Z,24.85
2023-09-10T09:46:35.811Z,24.969999
2023-09-10T09:50:00.966Z,25.1
2023-09-10T09:53:26.162Z,25.23
2023-09-10T09:56:51.362Z,25.299999
2023-09-10T10:00:16.635Z,25.389999
2023-09-10T10:03:41.803Z,25.5
2023-09-10T10:07:17.039Z,25.610001
2023-09-10T10:10:32.212Z,25.700001
2023-09-10T10:13:57.418Z,25.790001
2023-09-10T10:17:22.666Z,25.879999
2023-09-10T10:20:47.826Z,25.99
2023-09-10T10:24:13.088Z,26.120001
2023-09-10T10:27:38.276Z,26.25
2023-09-10T10:31:03.478Z,26.370001
2023-09-10T10:34:28.722Z,26.540001
2023-09-10T10:37:53.927Z,26.68
2023-09-10T10:41:19.153Z,26.83
2023-09-10T10:44:44.343Z,26.950001
2023-09-10T10:48:09.618Z,27.07
2023-09-10T10:51:45.660Z,27.200001
2023-09-10T10:54:59.984Z,27.290001
2023-09-10T10:58:25.173Z,27.4
2023-09-10T11:01:50.397Z,27.5
2023-09-10T11:05:15.705Z,27.559999
2023-09-10T11:08:40.901Z,27.629999
2023-09-10T11:12:06.132Z,27.719999
2023-09-10T11:15:31.406Z,27.790001
2023-09-10T11:18:58.671Z,27.860001
2023-09-10T11:22:24.283Z,27.940001
2023-09-10T11:26:04.851Z,28.030001
2023-09-10T11:29:33.279Z,28.08
2023-09-10T11:32:59.922Z,28.09
2023-09-10T11:36:29.979Z,28.1
2023-09-10T11:39:55.189Z,28.139999
2023-09-10T11:43:22.937Z,28.200001
2023-09-10T11:46:49.598Z,28.23
2023-09-10T11:50:23.486Z,28.280001
2023-09-10T11:53:52.698Z,28.309999
2023-09-10T11:57:28.095Z,28.360001
2023-09-10T12:00:54.284Z,28.42
2023-09-10T12:04:24.652Z,28.459999
2023-09-10T12:07:49.903Z,28.48
2023-09-10T12:11:15.148Z,28.49
2023-09-10T12:14:40.356Z,28.49
2023-09-10T12:18:05.623Z,28.51
2023-09-10T12:21:30.791Z,28.51
2023-09-10T12:24:56.055Z,28.51
2023-09-10T12:28:21.300Z,28.49
2023-09-10T12:31:46.474Z,28.5
2023-09-10T12:35:12.114Z,28.5
2023-09-10T12:38:37.344Z,28.48
2023-09-10T12:42:02.695Z,28.48
2023-09-10T12:45:27.892Z,28.43
2023-09-10T12:48:53.099Z,28.360001
2023-09-10T12:52:21.838Z,28.35
2023-09-10T12:55:54.463Z,28.4
2023-09-10T12:59:26.951Z,28.440001
2023-09-10T13:03:03.847Z,28.459999
2023-09-10T13:06:34.380Z,28.459999
2023-09-10T13:09:59.677Z,28.469999
2023-09-10T13:13:24.914Z,28.49
2023-09-10T13:16:51.023Z,28.5
2023-09-10T13:20:16.286Z,28.5
2023-09-10T13:23:41.628Z,28.49
2023-09-10T13:27:06.689Z,28.469999
2023-09-10T13:30:46.172Z,28.450001
2023-09-10T13:36:10.013Z,28.440001
2023-09-10T13:39:45.836Z,28.41
2023-09-10T13:43:11.864Z,28.42
2023-09-10T13:46:57.275Z,28.43
2023-09-10T13:51:40.585Z,28.41
2023-09-10T13:55:14.058Z,28.4
2023-09-10T13:59:06.656Z,28.389999
2023-09-10T14:06:35.292Z,28.42
2023-09-10T14:10:28.736Z,28.440001
2023-09-10T14:14:13.282Z,28.459999
2023-09-10T14:17:42.766Z,28.450001
2023-09-10T14:22:14.486Z,28.41
2023-09-10T14:25:48.708Z,28.360001
2023-09-10T14:29:13.967Z,28.34
2023-09-10T14:32:39.257Z,28.32
2023-09-10T14:36:04.398Z,28.299999
2023-09-10T14:39:29.614Z,28.280001
2023-09-10T14:42:54.858Z,28.26
2023-09-10T14:46:20.115Z,28.25
2023-09-10T14:49:45.389Z,28.24
2023-09-10T14:53:10.674Z,28.24
2023-09-10T14:56:35.963Z,28.200001
2023-09-10T15:00:01.199Z,28.200001
2023-09-10T15:03:26.505Z,28.18
2023-09-10T15:06:51.652Z,28.16
2023-09-10T15:10:16.870Z,28.139999
2023-09-10T15:45:13.231Z,25.549999
2023-09-10T15:48:40.179Z,26.450001
2023-09-10T15:52:03.777Z,26.610001
2023-09-10T15:55:28.999Z,26.77
2023-09-10T15:58:54.212Z,26.870001
2023-09-10T16:02:19.579Z,26.969999
2023-09-10T16:05:44.708Z,27.030001
2023-09-10T16:09:09.955Z,27.07
2023-09-10T16:12:35.182Z,27.1
2023-09-10T16:16:00.414Z,27.1
2023-09-10T16:19:25.656Z,27.110001
2023-09-10T16:22:50.870Z,27.09
2023-09-10T16:26:16.161Z,27.059999
2023-09-10T16:29:41.388Z,27.01
2023-09-10T16:33:06.627Z,26.959999
2023-09-10T16:36:31.912Z,26.91
2023-09-10T16:39:57.100Z,26.83
2023-09-10T16:43:22.340Z,26.75
2023-09-10T16:46:47.631Z,26.67
2023-09-10T16:50:12.812Z,26.57
2023-09-10T16:53:38.942Z,26.49
2023-09-10T16:57:04.011Z,26.360001
2023-09-10T17:00:29.242Z,26.24
2023-09-10T17:03:54.469Z,26.15
2023-09-10T17:07:19.701Z,26.01
2023-09-10T17:10:44.983Z,25.91
2023-09-10T17:14:10.210Z,25.82
2023-09-10T17:17:35.458Z,25.700001
2023-09-10T17:21:00.672Z,25.59
2023-09-10T17:24:25.903Z,25.48
2023-09-10T17:27:51.168Z,25.35
2023-09-10T17:31:16.389Z,25.24
2023-09-10T17:34:41.647Z,25.18
2023-09-10T17:38:06.895Z,25.15
2023-09-10T17:41:32.184Z,25.129999
2023-09-10T17:44:57.377Z,25.07
2023-09-10T17:48:22.615Z,24.98
2023-09-10T17:51:47.817Z,24.91
2023-09-10T17:55:13.052Z,24.790001
2023-09-10T17:58:38.867Z,24.639999
2023-09-10T18:02:03.655Z,24.43
2023-09-10T18:05:28.849Z,24.219999
2023-09-10T18:08:54.074Z,24.07
2023-09-10T18:12:19.339Z,23.98
2023-09-10T18:15:44.592Z,23.879999
2023-09-10T18:19:09.868Z,23.73
2023-09-10T18:22:35.143Z,23.65
2023-09-10T18:26:00.431Z,23.530001
2023-09-10T18:29:25.687Z,23.35
2023-09-10T18:32:50.938Z,23.16
2023-09-10T18:36:16.132Z,22.99
2023-09-10T18:39:41.327Z,22.790001
2023-09-10T18:43:06.577Z,22.620001
2023-09-10T18:46:31.800Z,22.5
2023-09-10T18:49:57.018Z,22.43
2023-09-10T18:53:22.374Z,22.360001
2023-09-10T18:56:47.499Z,22.27
2023-09-10T19:00:12.736Z,22.139999
2023-09-10T19:03:38.010Z,22
2023-09-10T19:07:03.140Z,21.91
2023-09-10T19:10:28.418Z,21.9
2023-09-10T19:13:53.624Z,21.9
2023-09-10T19:17:18.856Z,21.9
2023-09-10T19:20:44.089Z,21.879999
2023-09-10T19:24:09.283Z,21.82
2023-09-10T19:27:34.515Z,21.780001
2023-09-10T19:30:59.743Z,21.74
2023-09-10T19:34:24.931Z,21.719999
2023-09-10T19:37:50.140Z,21.67
2023-09-10T19:41:15.404Z,21.620001
2023-09-10T19:44:40.680Z,21.610001
2023-09-10T19:48:05.849Z,21.610001
2023-09-10T19:51:31.050Z,21.620001
2023-09-10T19:55:08.822Z,21.620001
2023-09-10T19:58:21.485Z,21.620001
2023-09-10T20:01:46.797Z,21.59
2023-09-10T20:05:12.011Z,21.59
2023-09-10T20:08:37.146Z,21.51
2023-09-10T20:12:02.341Z,21.459999
2023-09-10T20:15:27.518Z,21.440001
2023-09-10T20:18:52.736Z,21.43
2023-09-10T20:22:17.921Z,21.42
2023-09-10T20:25:43.121Z,21.4
2023-09-10T20:29:08.401Z,21.35
2023-09-10T20:32:33.574Z,21.27
2023-09-10T20:35:58.930Z,21.219999
2023-09-10T20:39:24.001Z,21.16
2023-09-10T20:42:49.229Z,21.09
2023-09-10T20:46:14.432Z,21.07
2023-09-10T20:49:39.649Z,21.049999
2023-09-10T20:53:04.885Z,21.040001
2023-09-10T20:56:30.092Z,21.02
2023-09-10T20:59:55.340Z,21.02
2023-09-10T21:03:28.337Z,21.040001
2023-09-10T21:06:45.824Z,21.01
2023-09-10T21:10:10.951Z,20.969999
2023-09-10T21:13:36.165Z,20.889999
2023-09-10T21:17:01.370Z,20.82
2023-09-10T21:20:26.624Z,20.76
2023-09-10T21:23:51.827Z,20.719999
2023-09-10T21:27:17.049Z,20.65
2023-09-10T21:30:42.249Z,20.629999
2023-09-10T21:34:07.475Z,20.620001
2023-09-10T21:37:32.671Z,20.65
2023-09-10T21:40:57.896Z,20.629999
2023-09-10T21:44:23.326Z,20.58
2023-09-10T21:47:48.343Z,20.52
2023-09-10T21:51:13.528Z,20.450001
2023-09-10T21:54:38.740Z,20.370001
2023-09-10T21:58:03.987Z,20.309999
2023-09-10T22:01:29.285Z,20.32
2023-09-10T22:04:54.448Z,20.299999
2023-09-10T22:08:19.675Z,20.299999
2023-09-10T22:11:44.864Z,20.299999
2023-09-10T22:15:10.101Z,20.24
2023-09-10T22:18:35.337Z,20.209999
2023-09-10T22:22:00.466Z,20.16
2023-09-10T22:25:25.640Z,20.08
2023-09-10T22:28:50.842Z,20.059999
2023-09-10T22:32:16.083Z,20.059999
2023-09-10T22:35:41.357Z,20.07
2023-09-10T22:39:06.685Z,20.040001
2023-09-10T22:42:31.684Z,20.049999
2023-09-10T22:45:56.917Z,19.99
2023-09-10T22:49:22.121Z,19.9
2023-09-10T22:52:47.419Z,19.82
2023-09-10T22:56:12.552Z,19.799999
2023-09-10T22:59:37.762Z,19.799999
2023-09-10T23:03:03.057Z,19.809999
2023-09-10T23:06:28.129Z,19.790001
2023-09-10T23:09:53.370Z,19.75
2023-09-10T23:13:18.549Z,19.719999
2023-09-10T23:16:43.736Z,19.75
2023-09-10T23:20:08.917Z,19.73
2023-09-10T23:23:34.103Z,19.73
2023-09-10T23:26:59.294Z,19.68
2023-09-10T23:30:24.434Z,19.67
2023-09-10T23:33:49.641Z,19.690001
2023-09-10T23:37:14.803Z,19.68
2023-09-10T23:40:39.980Z,19.66
2023-09-10T23:44:05.217Z,19.67
2023-09-10T23:47:30.411Z,19.67
2023-09-10T23:50:55.647Z,19.66
2023-09-10T23:54:20.757Z,19.639999
2023-09-10T23:57:45.976Z,19.629999
